createdAt,value
2023-04-12T00:01:56.856Z,98100.24
2023-04-12T00:04:27.587Z,98098.39
2023-04-12T00:06:56.280Z,98095.27
2023-04-12T00:09:25.562Z,98091.09
2023-04-12T00:11:54.148Z,98087.38
2023-04-12T00:14:22.830Z,98088.18
2023-04-12T00:18:26.197Z,98085.70
2023-04-12T00:20:57.812Z,98083.06
2023-04-12T00:23:28.969Z,98084.02
2023-04-12T00:25:57.726Z,98080.58
2023-04-12T00:28:26.366Z,98076.69
2023-04-12T00:30:56.234Z,98073.46
2023-04-12T00:33:24.701Z,98073.14
2023-04-12T00:35:53.308Z,98075.14
2023-04-12T00:38:23.434Z,98074.90
2023-04-12T00:40:52.311Z,98075.46
2023-04-12T00:43:20.672Z,98075.08
2023-04-12T00:45:49.259Z,98071.01
2023-04-12T00:48:20.978Z,98072.59
2023-04-12T00:50:51.442Z,98069.00
2023-04-12T00:53:22.885Z,98064.45
2023-04-12T00:55:54.855Z,98062.84
2023-04-12T00:58:27.135Z,98061.02
2023-04-12T01:01:00.529Z,98060.77
2023-04-12T01:03:31.169Z,98055.36
2023-04-12T01:06:29.955Z,98052.68
2023-04-12T01:08:58.324Z,98049.77
2023-04-12T01:11:31.312Z,98046.55
2023-04-12T01:14:03.702Z,98047.66
2023-04-12T01:16:41.187Z,98043.91
2023-04-12T01:19:36.892Z,98045.20
2023-04-12T01:22:42.798Z,98034.35
2023-04-12T01:25:11.028Z,98032.77
2023-04-12T01:27:43.803Z,98035.69
2023-04-12T01:30:14.436Z,98038.08
2023-04-12T01:32:44.381Z,98037.11
2023-04-12T01:35:12.831Z,98029.23
2023-04-12T01:37:43.396Z,98018.02
2023-04-12T01:40:13.338Z,98011.73
2023-04-12T01:42:41.777Z,98012.80
2023-04-12T01:45:11.645Z,98008.05
2023-04-12T01:47:41.365Z,98010.95
2023-04-12T01:50:16.205Z,98007.75
2023-04-12T01:53:14.343Z,98004.94
2023-04-12T01:55:45.972Z,97996.33
2023-04-12T01:58:15.651Z,97994.71
2023-04-12T02:00:44.128Z,97998.02
2023-04-12T02:03:14.909Z,98000.59
2023-04-12T02:05:44.166Z,98001.73
2023-04-12T02:08:12.670Z,97999.76
2023-04-12T02:10:41.850Z,97996.27
2023-04-12T02:13:11.556Z,97991.36
2023-04-12T02:15:40.771Z,97989.06
2023-04-12T02:18:11.960Z,97989.05
2023-04-12T02:20:44.164Z,97985.13
2023-04-12T02:23:12.974Z,97979.27
2023-04-12T02:25:41.566Z,97978.89
2023-04-12T02:28:10.691Z,97980.67
2023-04-12T02:30:45.862Z,97978.65
2023-04-12T02:33:15.997Z,97975.40
2023-04-12T02:35:44.805Z,97970.92
2023-04-12T02:38:14.933Z,97968.56
2023-04-12T02:40:44.194Z,97969.84
2023-04-12T02:43:19.635Z,97963.57
2023-04-12T02:45:51.947Z,97960.98
2023-04-12T02:48:20.629Z,97964.92
2023-04-12T02:50:49.493Z,97961.05
2023-04-12T02:53:23.213Z,97961.20
2023-04-12T02:56:01.605Z,97957.73
2023-04-12T02:58:30.934Z,97957.50
2023-04-12T03:01:07.913Z,97949.66
2023-04-12T03:03:49.186Z,97954.91
2023-04-12T03:06:32.197Z,97956.73
2023-04-12T03:09:01.891Z,97948.87
2023-04-12T03:11:31.394Z,97947.34
2023-04-12T03:14:04.301Z,97946.15
2023-04-12T03:16:35.726Z,97944.76
2023-04-12T03:19:09.448Z,97942.77
2023-04-12T03:21:38.874Z,97940.50
2023-04-12T03:24:08.751Z,97934.22
2023-04-12T03:26:37.233Z,97933.08
2023-04-12T03:29:15.031Z,97931.86
2023-04-12T03:31:44.766Z,97937.12
2023-04-12T03:34:13.525Z,97938.17
2023-04-12T03:36:45.590Z,97934.57
2023-04-12T03:39:24.718Z,97936.56
2023-04-12T03:41:53.652Z,97939.16
2023-04-12T03:44:26.393Z,97937.20
2023-04-12T03:46:56.152Z,97930.77
2023-04-12T03:49:25.640Z,97929.90
2023-04-12T03:51:54.248Z,97932.42
2023-04-12T03:54:24.465Z,97935.67
2023-04-12T03:57:05.676Z,97933.31
2023-04-12T03:59:40.827Z,97933.09
2023-04-12T04:02:10.070Z,97940.56
2023-04-12T04:04:43.376Z,97939.46
2023-04-12T04:07:14.177Z,97937.73
2023-04-12T04:09:44.912Z,97935.66
2023-04-12T04:12:13.679Z,97934.52
2023-04-12T04:14:46.564Z,97937.23
2023-04-12T04:17:21.142Z,97938.88
2023-04-12T04:19:55.428Z,97939.98
2023-04-12T04:22:24.212Z,97941.16
2023-04-12T04:24:53.773Z,97934.45
2023-04-12T04:27:22.409Z,97941.58
2023-04-12T04:29:52.714Z,97941.35
2023-04-12T04:32:21.182Z,97935.67
2023-04-12T04:35:00.379Z,97933.55
2023-04-12T04:37:37.778Z,97931.26
2023-04-12T04:40:11.867Z,97927.29
2023-04-12T04:42:43.280Z,97926.06
2023-04-12T04:45:15.325Z,97927.75
2023-04-12T04:47:46.125Z,97924.25
2023-04-12T04:50:19.373Z,97929.22
2023-04-12T04:52:49.900Z,97922.79
2023-04-12T04:55:18.619Z,97920.99
2023-04-12T04:57:48.461Z,97921.47
2023-04-12T05:00:18.621Z,97928.18
2023-04-12T05:02:52.231Z,97925.27
2023-04-12T05:05:30.533Z,97923.98
2023-04-12T05:08:07.224Z,97926.95
2023-04-12T05:10:39.157Z,97927.97
2023-04-12T05:29:41.183Z,97914.27
2023-04-12T05:32:14.065Z,97910.24
2023-04-12T05:34:42.142Z,97909.55
2023-04-12T05:37:10.230Z,97909.23
2023-04-12T05:39:38.604Z,97906.27
2023-04-12T05:42:07.333Z,97907.78
2023-04-12T05:52:17.491Z,97895.41
2023-04-12T05:54:46.781Z,97893.89
2023-04-12T05:57:18.745Z,97895.48
2023-04-12T05:59:49.433Z,97893.98
2023-04-12T06:02:20.110Z,97889.22
2023-04-12T06:04:51.146Z,97888.59
2023-04-12T06:07:21.889Z,97881.60
2023-04-12T06:09:50.326Z,97884.14
2023-04-12T06:12:19.980Z,97878.02
2023-04-12T06:14:49.993Z,97881.91
2023-04-12T06:17:19.107Z,97881.96
2023-04-12T06:19:50.537Z,97877.94
2023-04-12T06:22:19.649Z,97881.17
2023-04-12T06:24:49.135Z,97874.34
2023-04-12T06:27:22.841Z,97874.81
2023-04-12T06:29:52.346Z,97872.86
2023-04-12T06:32:21.336Z,97867.23
2023-04-12T06:34:50.126Z,97860.86
2023-04-12T06:37:22.022Z,97859.56
2023-04-12T06:39:50.573Z,97854.17
2023-04-12T06:42:19.802Z,97852.39
2023-04-12T06:44:49.537Z,97850.16
2023-04-12T06:47:18.217Z,97849.67
2023-04-12T06:49:47.561Z,97851.83
2023-04-12T06:52:16.137Z,97853.41
2023-04-12T06:54:47.492Z,97853.42
2023-04-12T06:57:16.273Z,97847.42
2023-04-12T06:59:45.797Z,97847.58
2023-04-12T07:02:14.600Z,97851.52
2023-04-12T07:04:43.156Z,97850.63
2023-04-12T07:07:15.636Z,97849.15
2023-04-12T07:09:50.560Z,97849.45
2023-04-12T07:12:19.258Z,97847.30
2023-04-12T07:14:50.805Z,97847.09
2023-04-12T07:17:21.653Z,97849.85
2023-04-12T07:19:51.078Z,97847.21
2023-04-12T07:22:27.098Z,97846.92
2023-04-12T07:24:58.136Z,97845.54
2023-04-12T07:27:26.822Z,97841.39
2023-04-12T07:29:58.649Z,97839.52
2023-04-12T07:32:27.666Z,97838.07
2023-04-12T07:34:58.353Z,97831.04
2023-04-12T07:37:27.517Z,97828.29
2023-04-12T07:39:56.466Z,97831.57
2023-04-12T07:42:25.123Z,97830.15
2023-04-12T07:44:53.874Z,97830.82
2023-04-12T07:47:23.287Z,97832.92
2023-04-12T07:49:51.987Z,97828.86
2023-04-12T07:52:20.749Z,97826.84
2023-04-12T07:54:57.634Z,97825.02
2023-04-12T07:57:27.177Z,97826.29
2023-04-12T07:59:57.060Z,97821.18
2023-04-12T08:02:26.240Z,97823.34
2023-04-12T08:04:55.099Z,97823.68
2023-04-12T08:07:27.940Z,97823.02
2023-04-12T08:09:57.725Z,97819.66
2023-04-12T08:12:26.517Z,97818.44
2023-04-12T08:15:04.391Z,97821.14
2023-04-12T08:17:33.852Z,97819.48
2023-04-12T08:20:04.967Z,97815.01
2023-04-12T08:22:37.944Z,97811.27
2023-04-12T08:25:09.430Z,97810.67
2023-04-12T08:27:42.798Z,97809.85
2023-04-12T08:30:12.248Z,97809.27
2023-04-12T08:32:41.987Z,97809.19
2023-04-12T08:35:11.330Z,97809.25
2023-04-12T08:37:39.886Z,97804.98
2023-04-12T08:40:09.569Z,97805.24
2023-04-12T08:42:38.391Z,97802.77
2023-04-12T08:45:08.704Z,97802.52
2023-04-12T08:47:38.924Z,97803.70
2023-04-12T08:50:14.209Z,97803.17
2023-04-12T08:52:43.023Z,97798.21
2023-04-12T08:55:13.192Z,97794.59
2023-04-12T08:57:42.080Z,97794.98
2023-04-12T09:00:11.694Z,97791.94
2023-04-12T09:02:47.459Z,97792.66
2023-04-12T09:05:16.341Z,97785.83
2023-04-12T09:07:45.731Z,97788.87
2023-04-12T09:10:31.068Z,97786.32
2023-04-12T09:13:01.461Z,97786.98
2023-04-12T09:15:30.651Z,97778.96
2023-04-12T09:18:11.618Z,97775.02
2023-04-12T09:20:40.508Z,97775.44
2023-04-12T09:23:22.416Z,97773.73
2023-04-12T09:25:53.704Z,97777.94
2023-04-12T09:28:26.382Z,97782.45
2023-04-12T09:30:56.372Z,97785.41
2023-04-12T09:33:46.417Z,97782.71
2023-04-12T09:36:17.214Z,97781.83
2023-04-12T09:39:01.249Z,97782.32
2023-04-12T09:41:32.172Z,97782.40
2023-04-12T09:44:01.270Z,97782.04
2023-04-12T09:46:30.333Z,97782.17
2023-04-12T09:48:59.423Z,97779.27
2023-04-12T09:51:36.725Z,97779.60
2023-04-12T09:54:06.851Z,97778.67
2023-04-12T09:56:36.774Z,97773.37
2023-04-12T09:59:10.949Z,97769.02
2023-04-12T10:01:40.479Z,97769.27
2023-04-12T10:04:09.984Z,97768.59
2023-04-12T10:06:42.234Z,97765.31
2023-04-12T10:09:10.757Z,97763.19
2023-04-12T10:11:42.042Z,97761.75
2023-04-12T10:14:12.088Z,97760.55
2023-04-12T10:16:45.429Z,97763.23
2023-04-12T10:19:14.162Z,97762.42
2023-04-12T10:21:43.056Z,97757.44
2023-04-12T10:24:17.673Z,97761.41
2023-04-12T10:26:47.106Z,97760.64
2023-04-12T10:29:30.240Z,97759.41
2023-04-12T10:32:18.766Z,97763.25
2023-04-12T10:34:58.258Z,97761.10
2023-04-12T10:38:02.456Z,97759.02
2023-04-12T10:46:49.896Z,97758.55
2023-04-12T10:49:17.619Z,97756.60
2023-04-12T10:52:05.195Z,97754.08
2023-04-12T10:54:34.973Z,97744.93
2023-04-12T10:57:03.747Z,97744.91
2023-04-12T10:59:50.562Z,97741.73
2023-04-12T11:02:17.857Z,97738.84
2023-04-12T11:05:10.562Z,97744.13
2023-04-12T11:08:20.730Z,97746.11
2023-04-12T11:11:19.132Z,97748.06
2023-04-12T11:13:46.568Z,97750.05
2023-04-12T11:16:15.869Z,97753.12
2023-04-12T11:18:46.696Z,97750.02
2023-04-12T11:21:13.938Z,97752.36
2023-04-12T11:23:45.193Z,97754.90
2023-04-12T11:26:14.814Z,97755.10
2023-04-12T11:28:42.150Z,97755.41
2023-04-12T11:31:10.877Z,97757.70
2023-04-12T11:33:39.331Z,97753.10
2023-04-12T11:36:11.719Z,97751.61
2023-04-12T11:38:39.570Z,97748.56
2023-04-12T11:41:08.038Z,97752.95
2023-04-12T11:43:37.991Z,97754.30
2023-04-12T11:46:06.410Z,97753.85
2023-04-12T11:48:34.709Z,97754.90
2023-04-12T11:51:18.142Z,97750.45
2023-04-12T11:53:45.733Z,97755.09
2023-04-12T11:56:13.466Z,97754.16
2023-04-12T11:58:40.717Z,97752.67
2023-04-12T12:01:08.186Z,97753.34
2023-04-12T12:11:13.562Z,97749.80
2023-04-12T12:13:53.012Z,97746.35
2023-04-12T12:16:28.958Z,97749.48
2023-04-12T12:19:04.411Z,97748.52
2023-04-12T12:21:33.097Z,97750.45
2023-04-12T12:24:02.591Z,97745.48
2023-04-12T12:26:32.299Z,97739.96
2023-04-12T12:29:00.934Z,97736.21
2023-04-12T12:31:33.802Z,97734.38
2023-04-12T12:34:03.778Z,97733.73
2023-04-12T12:36:39.182Z,97733.45
2023-04-12T12:39:12.524Z,97734.29
2023-04-12T12:41:41.689Z,97730.44
2023-04-12T12:44:15.843Z,97731.70
2023-04-12T12:46:55.174Z,97733.88
2023-04-12T12:49:29.534Z,97734.73
2023-04-12T12:51:59.937Z,97736.02
2023-04-12T12:54:40.256Z,97731.10
2023-04-12T12:57:10.023Z,97730.38
2023-04-12T12:59:38.947Z,97731.98
2023-04-12T13:02:08.089Z,97730.88
2023-04-12T13:04:39.520Z,97731.95
2023-04-12T13:07:09.090Z,97729.61
2023-04-12T13:09:37.830Z,97727.71
2023-04-12T13:12:11.838Z,97726.02
2023-04-12T13:14:42.310Z,97725.57
2023-04-12T13:17:10.957Z,97726.39
2023-04-12T13:19:48.437Z,97726.10
2023-04-12T13:22:18.356Z,97725.41
2023-04-12T13:24:47.057Z,97727.11
2023-04-12T13:27:21.879Z,97725.16
2023-04-12T13:29:51.669Z,97726.58
2023-04-12T13:32:26.272Z,97727.21
2023-04-12T13:34:55.627Z,97727.88
2023-04-12T13:37:24.284Z,97731.52
2023-04-12T13:39:54.205Z,97733.67
2023-04-12T13:42:24.139Z,97734.08
2023-04-12T13:44:52.512Z,97733.50
2023-04-12T13:47:23.784Z,97735.09
2023-04-12T13:49:52.355Z,97733.70
2023-04-12T13:52:21.212Z,97736.21
2023-04-12T13:54:51.866Z,97733.41
2023-04-12T13:57:20.939Z,97734.70
2023-04-12T13:59:50.859Z,97735.59
2023-04-12T14:02:19.726Z,97736.22
2023-04-12T14:04:55.488Z,97737.00
2023-04-12T14:07:24.611Z,97737.38
2023-04-12T14:09:54.007Z,97732.96
2023-04-12T14:12:22.790Z,97738.17
2023-04-12T14:14:51.377Z,97739.89
2023-04-12T14:17:20.668Z,97739.66
2023-04-12T14:19:51.508Z,97738.73
2023-04-12T14:22:20.195Z,97742.08
2023-04-12T14:24:48.819Z,97742.27
2023-04-12T14:27:18.137Z,97742.73
2023-04-12T14:29:47.162Z,97742.59
2023-04-12T14:32:19.750Z,97745.42
2023-04-12T14:34:49.452Z,97741.84
2023-04-12T14:37:17.834Z,97745.14
2023-04-12T14:39:46.639Z,97743.27
2023-04-12T14:42:16.025Z,97746.27
2023-04-12T14:44:45.737Z,97747.95
2023-04-12T14:47:15.240Z,97750.55
2023-04-12T14:49:44.135Z,97750.86
2023-04-12T14:52:16.699Z,97751.05
2023-04-12T14:54:46.716Z,97747.38
2023-04-12T14:57:15.820Z,97749.45
2023-04-12T14:59:50.897Z,97749.00
2023-04-12T15:02:22.187Z,97748.27
2023-04-12T15:04:52.716Z,97751.05
2023-04-12T15:07:21.539Z,97751.80
2023-04-12T15:09:50.108Z,97755.17
2023-04-12T15:12:18.685Z,97752.61
2023-04-12T15:14:47.580Z,97748.64
2023-04-12T15:17:20.119Z,97750.18
2023-04-12T15:19:48.843Z,97746.79
2023-04-12T15:22:21.010Z,97747.52
2023-04-12T15:24:50.615Z,97749.20
2023-04-12T15:27:19.295Z,97747.09
2023-04-12T15:29:48.393Z,97744.86
2023-04-12T15:32:18.349Z,97746.52
2023-04-12T15:34:47.196Z,97748.10
2023-04-12T15:37:16.262Z,97749.64
2023-04-12T15:39:45.490Z,97744.06
2023-04-12T15:42:14.814Z,97744.02
2023-04-12T15:44:43.388Z,97742.60
2023-04-12T15:47:12.410Z,97742.77
2023-04-12T15:49:41.730Z,97743.46
2023-04-12T15:52:10.061Z,97743.02
2023-04-12T15:54:44.180Z,97747.84
2023-04-12T15:57:13.251Z,97743.45
2023-04-12T15:59:47.992Z,97741.89
2023-04-12T16:02:17.490Z,97738.48
2023-04-12T16:04:46.699Z,97741.17
2023-04-12T16:07:15.373Z,97734.10
2023-04-12T16:09:44.514Z,97732.95
2023-04-12T16:12:14.618Z,97730.23
2023-04-12T16:14:43.486Z,97728.91
2023-04-12T16:17:14.724Z,97728.54
2023-04-12T16:19:43.850Z,97727.54
2023-04-12T16:22:12.915Z,97729.41
2023-04-12T16:24:45.589Z,97732.08
2023-04-12T16:27:15.250Z,97735.85
2023-04-12T16:29:44.103Z,97731.64
2023-04-12T16:32:14.989Z,97734.05
2023-04-12T16:34:44.857Z,97732.73
